Main page
METAR-TAF:

METAR-TAF

Airports :

Carlisle Lake District Airport

Carlisle, England

latitude: 54-56-15N, longitude: 002-48-33W, elevation: 57 m

METAR: missing

Time: 07:14 (06:14 UTC)

Forecast

The report was made 22 hours and 12 minutes ago, at 08:02 UTC
Forecast valid from 18 at 09 UTC to 18 at 18 UTC
Wind 3 kt from the East
Visibility 10 km or more
Few clouds at a height of 4500 ft

TAF: EGNC 180802Z 1809/1818 10003KT 9999 FEW045

Weather observations and forecasts of more than 4000 airports (METAR and TAF reports).

The available stations are represented by yellow and red dots on the map.

Hover mouse over dot to see the name of the station.

Then click to see weather observations and forecasts.

To change the map : click on the green buttons with a black cross to zoom in, on the green button with a dash to zoom out, or on the green arrows for adjacent maps.


METAR-TAF: